Impacts METAR Board INFO
IDs:

KDCA - Washington/National, VA, US

Updated at: 0636 UTC 12 Dec 2017
Potential Impact None Slight Moderate High
Time11/18Z 11/19Z 11/20Z 11/21Z 11/22Z 11/23Z 12/00Z 12/01Z 12/02Z 12/03Z 12/04Z 12/05Z 12/06Z
VIS10 10 10 10 10 10 10 10 10 10 10 10 10
CIG-- 250 -- -- -- -- -- 190 180 180 130 130 200
CoverSCTBKNSCTSCTSCTSCTSCTBKNBKNBKNOVCOVCBKN
FltCatVFRVFRVFRVFRVFRVFRVFRVFRVFRVFRVFRVFRVFR
WX--------------------------
WDir0140170180160160170170170170170180180
WSpd4 5 8 6 7 7 9 9 10 12 11 10 7
WGst-- -- -- -- -- -- -- -- -- -- -- -- --
Raw hourly METARs
KDCA 111752Z VRB04KT 10SM SCT250 09/M04 A3003 RMK AO2 SLP170 T00891039 10089 20017 58025
KDCA 111852Z 14005KT 10SM BKN250 09/M04 A3000 RMK AO2 SLP158 T00891039
KDCA 111952Z 17008KT 10SM FEW160 SCT250 09/M03 A3000 RMK AO2 SLP159 T00891028
KDCA 112052Z 18006KT 10SM SCT150 SCT250 08/M02 A3000 RMK AO2 SLP159 T00831022 55011
KDCA 112152Z 16007KT 10SM FEW150 SCT250 07/M01 A2998 RMK AO2 SLP152 T00671011
KDCA 112252Z 16007KT 10SM SCT250 07/M02 A2997 RMK AO2 SLP148 T00671022
KDCA 112352Z 17009KT 10SM SCT250 06/M02 A2997 RMK AO2 SLP149 T00611022 10094 20061 55010
KDCA 120052Z 17009KT 10SM BKN190 BKN250 06/M01 A2997 RMK AO2 SLP147 T00561011
KDCA 120152Z 17010KT 10SM BKN180 BKN250 06/00 A2995 RMK AO2 SLP142 T00560000
KDCA 120252Z 17012KT 10SM BKN180 BKN250 05/00 A2993 RMK AO2 SLP134 T00500000 58015
KDCA 120352Z 17011KT 10SM BKN130 OVC200 05/01 A2989 RMK AO2 SLP122 T00500006
KDCA 120452Z 18010KT 10SM BKN130 OVC200 06/01 A2985 RMK AO2 SLP106 T00560011 400940017
KDCA 120552Z 18007KT 10SM FEW130 BKN200 05/01 A2983 RMK AO2 SLP099 T00500006 10061 20050 56035